Time;durP1;ratioP1;P1;durP2;ratioP2;P2;SDS_P1;SDS_P2;PMS_P1;PMS_P2;Temp;Humidity;BMP_temperature;BMP_pressure;BME280_temperature;BME280_humidity;BME280_pressure;Samples;Min_cycle;Max_cycle;Signal;HPM_P1;HPM_P2
2023/08/27 00:02:07;;;;;;;3.22;2.92;;;15.50;99.90;;;;;;5053409;28;20267;-52
2023/08/27 00:04:32;;;;;;;4.10;3.00;;;15.60;99.90;;;;;;5053335;28;20258;-52
2023/08/27 00:06:58;;;;;;;3.38;3.05;;;15.60;99.90;;;;;;5053547;28;20182;-52
2023/08/27 00:09:23;;;;;;;3.40;3.10;;;15.60;99.90;;;;;;5053618;28;20182;-50
2023/08/27 00:11:49;;;;;;;3.40;3.05;;;15.60;99.90;;;;;;5053334;28;20217;-52
2023/08/27 00:14:15;;;;;;;3.63;3.30;;;15.60;99.90;;;;;;5052875;28;20647;-50
2023/08/27 00:16:40;;;;;;;4.57;3.05;;;15.70;99.90;;;;;;5053252;28;20225;-53
2023/08/27 00:19:06;;;;;;;3.30;3.00;;;15.70;99.90;;;;;;5053387;28;20234;-53
2023/08/27 00:21:32;;;;;;;3.35;3.05;;;15.60;99.90;;;;;;5053479;28;20215;-51
2023/08/27 00:23:57;;;;;;;3.55;3.05;;;15.60;99.90;;;;;;5053120;28;20595;-51
2023/08/27 00:26:23;;;;;;;5.45;3.38;;;15.70;99.90;;;;;;5053344;28;20250;-53
2023/08/27 00:28:49;;;;;;;4.78;3.30;;;15.50;99.90;;;;;;5053207;28;20205;-54
2023/08/27 00:31:14;;;;;;;5.70;3.58;;;15.60;99.90;;;;;;5053015;28;20207;-50
2023/08/27 00:33:40;;;;;;;4.60;3.22;;;15.60;99.90;;;;;;5052992;28;20207;-53
2023/08/27 00:36:06;;;;;;;4.35;2.97;;;15.60;99.90;;;;;;5053011;28;20177;-51
2023/08/27 00:38:31;;;;;;;3.58;2.97;;;15.60;99.90;;;;;;5053276;28;20203;-49
2023/08/27 00:40:57;;;;;;;5.45;3.53;;;15.60;99.90;;;;;;5052885;28;20175;-51
2023/08/27 00:43:22;;;;;;;4.07;3.33;;;15.60;99.90;;;;;;5053022;28;20172;-53
2023/08/27 00:45:49;;;;;;;3.90;3.40;;;15.70;99.90;;;;;;5053104;28;20175;-53
2023/08/27 00:48:15;;;;;;;5.32;2.95;;;15.70;99.90;;;;;;5053202;28;20167;-53
2023/08/27 00:50:41;;;;;;;4.63;3.40;;;15.70;99.90;;;;;;5053022;28;20600;-50
2023/08/27 00:53:07;;;;;;;6.60;3.90;;;15.80;99.90;;;;;;5053020;28;20180;-53
2023/08/27 00:55:34;;;;;;;4.63;3.33;;;15.80;99.90;;;;;;5052729;28;20627;-50
2023/08/27 00:58:00;;;;;;;3.47;3.17;;;15.80;99.90;;;;;;5052945;28;20242;-50
2023/08/27 01:00:27;;;;;;;4.32;3.20;;;15.90;99.90;;;;;;5052845;28;20214;-51
2023/08/27 01:02:52;;;;;;;3.80;3.38;;;15.80;99.90;;;;;;5052988;28;20647;-54
2023/08/27 01:05:20;;;;;;;3.85;3.45;;;15.70;99.90;;;;;;5052770;28;20183;-53
2023/08/27 01:08:20;;;;;;;3.90;3.47;;;15.70;99.90;;;;;;5052942;28;20183;-55
2023/08/27 01:11:18;;;;;;;4.07;3.58;;;15.70;99.90;;;;;;5052608;28;20665;-53
2023/08/27 01:13:56;;;;;;;5.85;3.70;;;15.70;99.90;;;;;;5053044;28;20164;-54
2023/08/27 01:16:25;;;;;;;5.90;3.55;;;15.80;99.90;;;;;;5052824;28;20186;-51
2023/08/27 01:18:53;;;;;;;6.15;3.47;;;15.80;99.90;;;;;;5052595;28;20164;-52
2023/08/27 01:21:23;;;;;;;5.82;3.65;;;15.80;99.90;;;;;;5052755;28;20178;-52
2023/08/27 01:23:48;;;;;;;4.45;3.90;;;15.70;99.90;;;;;;5052525;28;20175;-53
2023/08/27 01:26:44;;;;;;;6.20;3.55;;;15.70;99.90;;;;;;5054434;28;20179;-51
2023/08/27 01:29:34;;;;;;;5.97;4.05;;;15.70;99.90;;;;;;5056310;28;20596;-52
2023/08/27 01:32:29;;;;;;;4.80;4.10;;;15.80;99.90;;;;;;5056243;28;20229;-51
2023/08/27 01:34:56;;;;;;;6.18;3.60;;;15.60;99.90;;;;;;5056341;28;20170;-53
2023/08/27 01:37:22;;;;;;;7.30;4.47;;;15.50;99.90;;;;;;5056255;28;20178;-50
2023/08/27 01:40:11;;;;;;;4.35;3.65;;;15.50;99.90;;;;;;5056083;28;20263;-54
2023/08/27 01:42:36;;;;;;;5.70;3.72;;;15.60;99.90;;;;;;5055993;28;20226;-52
2023/08/27 01:45:07;;;;;;;5.15;4.18;;;15.60;99.90;;;;;;5056183;28;20632;-52
2023/08/27 01:47:33;;;;;;;4.90;4.00;;;15.50;99.90;;;;;;5056136;28;20167;-51
2023/08/27 01:49:58;;;;;;;4.75;4.00;;;15.50;99.90;;;;;;5055913;28;20203;-53
2023/08/27 01:52:24;;;;;;;4.78;4.28;;;15.50;99.90;;;;;;5055874;28;20175;-51
2023/08/27 01:54:49;;;;;;;4.97;4.13;;;15.50;99.90;;;;;;5055861;28;20202;-54
2023/08/27 01:57:15;;;;;;;5.63;4.15;;;15.50;99.90;;;;;;5055668;28;20199;-52
2023/08/27 01:59:41;;;;;;;6.55;4.25;;;15.50;99.90;;;;;;5055957;28;20647;-52
2023/08/27 02:02:07;;;;;;;5.13;4.40;;;15.40;99.90;;;;;;5055782;28;20262;-52
2023/08/27 02:04:32;;;;;;;5.38;3.95;;;15.40;99.90;;;;;;5055531;28;20563;-52
2023/08/27 02:06:58;;;;;;;4.95;4.45;;;15.40;99.90;;;;;;5055617;28;20175;-53
2023/08/27 02:09:23;;;;;;;6.43;4.20;;;15.40;99.90;;;;;;5055491;28;20203;-52
2023/08/27 02:11:49;;;;;;;5.43;3.88;;;15.40;99.90;;;;;;5055352;28;20686;-51
2023/08/27 02:14:15;;;;;;;5.85;4.10;;;15.40;99.90;;;;;;5055370;28;20171;-49
2023/08/27 02:16:41;;;;;;;7.40;4.25;;;15.40;99.90;;;;;;5055477;28;20551;-51
2023/08/27 02:19:07;;;;;;;5.32;4.00;;;15.30;99.90;;;;;;5055411;28;20549;-51
2023/08/27 02:21:32;;;;;;;5.55;4.47;;;15.40;99.90;;;;;;5055382;28;20189;-52
2023/08/27 02:23:59;;;;;;;6.80;4.30;;;15.40;99.90;;;;;;5055247;28;20274;-52
2023/08/27 02:26:24;;;;;;;5.93;4.30;;;15.30;99.90;;;;;;5055185;28;20207;-49
2023/08/27 02:28:50;;;;;;;5.75;3.88;;;15.40;99.90;;;;;;5055354;28;20659;-50
2023/08/27 02:31:16;;;;;;;4.68;4.25;;;15.40;99.90;;;;;;5055244;28;20295;-49
2023/08/27 02:33:41;;;;;;;4.82;4.13;;;15.30;99.90;;;;;;5055126;28;20583;-49
2023/08/27 02:36:07;;;;;;;5.78;4.40;;;15.30;99.90;;;;;;5054894;28;20541;-54
2023/08/27 02:38:33;;;;;;;4.70;4.03;;;15.40;99.90;;;;;;5054905;28;20167;-52
2023/08/27 02:40:59;;;;;;;5.43;4.20;;;15.30;99.90;;;;;;5054873;28;20258;-52
2023/08/27 02:43:24;;;;;;;4.90;3.90;;;15.20;99.90;;;;;;5055103;28;20206;-49
2023/08/27 02:45:50;;;;;;;4.28;3.88;;;15.10;99.90;;;;;;5054955;28;20206;-50
2023/08/27 02:48:16;;;;;;;6.68;4.22;;;15.10;99.90;;;;;;5054885;28;20172;-52
2023/08/27 02:50:41;;;;;;;6.03;4.05;;;15.10;99.90;;;;;;5054732;28;20218;-52
2023/08/27 02:53:07;;;;;;;4.50;4.10;;;15.10;99.90;;;;;;5054745;28;20175;-52
2023/08/27 02:55:33;;;;;;;4.75;4.35;;;15.10;99.90;;;;;;5053337;28;20187;-52
2023/08/27 02:57:59;;;;;;;6.32;4.38;;;15.10;99.90;;;;;;5054772;28;20517;-52
2023/08/27 03:00:25;;;;;;;5.07;4.43;;;15.20;99.90;;;;;;5054739;28;20186;-52
2023/08/27 03:02:50;;;;;;;5.25;4.85;;;15.20;99.90;;;;;;5054658;28;20175;-51
2023/08/27 03:05:17;;;;;;;6.95;4.85;;;15.20;99.90;;;;;;5054570;28;20533;-50
2023/08/27 03:07:43;;;;;;;6.47;5.00;;;15.20;99.90;;;;;;5054367;28;20621;-52
2023/08/27 03:10:09;;;;;;;5.50;4.57;;;15.20;99.90;;;;;;5054144;28;20225;-51
2023/08/27 03:12:35;;;;;;;7.07;5.50;;;15.20;99.90;;;;;;5054543;28;20167;-53
2023/08/27 03:15:00;;;;;;;6.10;5.10;;;15.20;99.90;;;;;;5054461;28;20179;-51
2023/08/27 03:17:26;;;;;;;5.60;5.10;;;15.30;99.90;;;;;;5054488;28;20185;-52
2023/08/27 03:19:52;;;;;;;6.25;5.35;;;15.30;99.90;;;;;;5054170;28;20223;-52
2023/08/27 03:22:18;;;;;;;6.13;5.25;;;15.20;99.90;;;;;;5054167;28;20180;-52
2023/08/27 03:24:43;;;;;;;6.68;5.07;;;15.20;99.90;;;;;;5054072;28;20171;-48
2023/08/27 03:27:09;;;;;;;6.63;5.00;;;15.20;99.90;;;;;;5054229;28;20183;-51
2023/08/27 03:29:34;;;;;;;7.80;5.20;;;15.10;99.90;;;;;;5054026;28;20550;-49
2023/08/27 03:32:00;;;;;;;5.85;5.22;;;15.20;99.90;;;;;;5053994;28;20211;-52
2023/08/27 03:34:26;;;;;;;5.20;4.70;;;15.20;99.90;;;;;;5054158;28;20183;-48
2023/08/27 03:36:51;;;;;;;6.15;5.30;;;15.20;99.90;;;;;;5052715;28;20183;-50
2023/08/27 03:39:17;;;;;;;5.88;4.93;;;15.20;99.90;;;;;;5053780;28;20175;-50
2023/08/27 03:41:43;;;;;;;7.00;5.18;;;15.10;99.90;;;;;;5053717;28;20175;-51
2023/08/27 03:44:09;;;;;;;5.57;4.40;;;15.20;99.90;;;;;;5053848;28;20187;-48
2023/08/27 03:46:34;;;;;;;7.03;5.60;;;15.20;99.90;;;;;;5053877;28;20237;-51
2023/08/27 03:49:00;;;;;;;6.30;5.70;;;15.20;99.90;;;;;;5053099;28;20171;-50
2023/08/27 03:51:28;;;;;;;5.70;5.10;;;15.30;99.90;;;;;;5053505;28;20207;-50
2023/08/27 03:53:55;;;;;;;7.07;5.35;;;15.30;99.90;;;;;;5053513;28;20180;-50
2023/08/27 03:56:21;;;;;;;7.88;5.63;;;15.30;99.90;;;;;;5053518;28;20702;-52
2023/08/27 03:58:47;;;;;;;7.07;5.47;;;15.30;99.90;;;;;;5053633;28;20183;-52
2023/08/27 04:01:13;;;;;;;6.80;5.68;;;15.30;99.90;;;;;;5053687;28;20187;-51
2023/08/27 04:03:39;;;;;;;8.85;5.90;;;15.30;99.90;;;;;;5053207;28;20168;-48
2023/08/27 04:06:07;;;;;;;6.40;5.43;;;15.20;99.90;;;;;;5053388;28;20175;-50
2023/08/27 04:08:33;;;;;;;7.53;6.00;;;15.20;99.90;;;;;;5053309;28;20556;-48
2023/08/27 04:11:01;;;;;;;6.45;5.78;;;15.20;99.90;;;;;;5053423;28;20219;-50
2023/08/27 04:13:26;;;;;;;7.47;6.30;;;15.20;99.90;;;;;;5053189;28;20528;-50
2023/08/27 04:16:06;;;;;;;7.68;5.78;;;15.30;99.90;;;;;;5053368;28;20168;-51
2023/08/27 04:18:35;;;;;;;7.45;5.93;;;15.30;99.90;;;;;;5053460;28;20178;-51
2023/08/27 04:21:01;;;;;;;6.70;5.68;;;15.20;99.90;;;;;;5052957;28;20318;-52
2023/08/27 04:23:27;;;;;;;7.38;5.88;;;15.20;99.90;;;;;;5053119;28;20225;-48
2023/08/27 04:25:53;;;;;;;5.95;5.28;;;15.10;99.90;;;;;;5053333;28;20171;-50
2023/08/27 04:28:19;;;;;;;6.30;5.47;;;15.10;99.90;;;;;;5053262;28;20655;-50
2023/08/27 04:30:48;;;;;;;6.72;5.88;;;15.00;99.90;;;;;;5053108;28;20211;-52
2023/08/27 04:33:14;;;;;;;6.50;5.60;;;15.00;99.90;;;;;;5053101;28;20171;-50
2023/08/27 04:35:40;;;;;;;7.57;5.78;;;15.10;99.90;;;;;;5053015;28;20171;-51
2023/08/27 04:38:06;;;;;;;6.90;5.93;;;15.00;99.90;;;;;;5053221;28;20167;-48
2023/08/27 04:40:33;;;;;;;6.70;5.85;;;14.90;99.90;;;;;;5053282;28;20244;-49
2023/08/27 04:42:59;;;;;;;7.28;5.95;;;14.90;99.90;;;;;;5053173;28;20183;-52
2023/08/27 04:45:25;;;;;;;6.45;5.18;;;14.90;99.90;;;;;;5053060;28;20177;-52
2023/08/27 04:47:51;;;;;;;6.90;5.20;;;14.80;99.90;;;;;;5052935;28;20183;-52
2023/08/27 04:50:17;;;;;;;8.10;5.68;;;14.80;99.90;;;;;;5052801;28;20203;-50
2023/08/27 04:52:43;;;;;;;7.00;5.75;;;14.80;99.90;;;;;;5053094;28;20177;-52
2023/08/27 04:55:09;;;;;;;6.60;5.90;;;14.80;99.90;;;;;;5053036;28;20587;-49
2023/08/27 04:57:36;;;;;;;7.45;5.47;;;14.90;99.90;;;;;;5052905;28;20206;-51
2023/08/27 05:00:13;;;;;;;7.82;5.50;;;14.80;99.90;;;;;;5054332;28;20210;-49
2023/08/27 05:02:38;;;;;;;9.05;5.85;;;14.80;99.90;;;;;;5056751;28;20167;-48
2023/08/27 05:05:05;;;;;;;8.45;6.18;;;14.80;99.90;;;;;;5056932;28;20183;-53
2023/08/27 05:07:31;;;;;;;7.43;5.88;;;14.80;99.90;;;;;;5056889;28;20175;-49
2023/08/27 05:09:56;;;;;;;7.90;6.15;;;14.70;99.90;;;;;;5056667;28;20233;-52
2023/08/27 05:12:22;;;;;;;7.57;6.28;;;14.70;99.90;;;;;;5056701;28;20250;-51
2023/08/27 05:14:48;;;;;;;5.82;5.20;;;14.70;99.90;;;;;;5056628;28;20209;-52
2023/08/27 05:17:13;;;;;;;6.57;5.00;;;14.70;99.90;;;;;;5056484;28;20607;-51
2023/08/27 05:19:39;;;;;;;6.10;5.07;;;14.70;99.90;;;;;;5056444;28;20219;-52
2023/08/27 05:22:05;;;;;;;7.28;5.43;;;14.70;99.90;;;;;;5056400;28;20175;-51
2023/08/27 05:24:30;;;;;;;5.70;5.07;;;14.80;99.90;;;;;;5056513;28;20175;-52
2023/08/27 05:26:56;;;;;;;6.93;5.60;;;14.80;99.90;;;;;;5056358;28;20233;-52
2023/08/27 05:29:22;;;;;;;6.35;5.40;;;14.80;99.90;;;;;;5056424;28;20662;-52
2023/08/27 05:31:47;;;;;;;6.30;5.50;;;14.80;99.90;;;;;;5056248;28;20574;-51
2023/08/27 05:34:14;;;;;;;5.82;5.22;;;14.80;99.90;;;;;;5056078;28;20180;-52
2023/08/27 05:36:40;;;;;;;5.57;5.03;;;14.80;99.90;;;;;;5056103;28;20638;-51
2023/08/27 05:39:06;;;;;;;8.43;5.57;;;14.80;99.90;;;;;;5055986;28;20172;-53
2023/08/27 05:41:32;;;;;;;8.35;5.80;;;14.80;99.90;;;;;;5055418;28;20244;-52
2023/08/27 05:43:58;;;;;;;7.20;5.20;;;14.90;99.90;;;;;;5056092;28;20172;-51
2023/08/27 05:46:23;;;;;;;6.97;5.28;;;15.00;99.90;;;;;;5055476;28;20188;-51
2023/08/27 05:48:49;;;;;;;6.78;5.32;;;15.00;99.90;;;;;;5055247;28;20176;-52
2023/08/27 05:51:15;;;;;;;6.68;5.18;;;15.00;99.90;;;;;;5055602;28;20548;-51
2023/08/27 05:53:42;;;;;;;9.32;5.57;;;15.10;99.90;;;;;;5055538;28;20222;-51
2023/08/27 05:56:07;;;;;;;7.75;5.40;;;15.10;99.90;;;;;;5055345;28;20172;-53
2023/08/27 05:58:33;;;;;;;6.57;4.80;;;15.20;99.90;;;;;;5055357;28;20177;-52
2023/08/27 06:00:58;;;;;;;6.10;5.03;;;15.30;99.90;;;;;;5054426;28;20293;-51
2023/08/27 06:03:25;;;;;;;6.13;4.95;;;15.40;99.90;;;;;;5055549;28;20646;-51
2023/08/27 06:05:51;;;;;;;5.95;5.00;;;15.50;99.90;;;;;;5055781;28;20160;-50
2023/08/27 06:08:16;;;;;;;6.10;4.97;;;15.60;99.90;;;;;;5054688;28;20571;-51
2023/08/27 06:10:42;;;;;;;6.60;5.22;;;15.70;99.90;;;;;;5055020;28;20207;-50
2023/08/27 06:13:08;;;;;;;5.93;4.38;;;15.80;99.90;;;;;;5054793;28;20604;-51
2023/08/27 06:15:34;;;;;;;5.60;4.75;;;15.90;99.90;;;;;;5055460;28;20175;-51
2023/08/27 06:18:03;;;;;;;8.07;4.90;;;15.90;99.90;;;;;;5052875;28;20190;-52
2023/08/27 06:20:29;;;;;;;4.93;4.43;;;15.90;99.90;;;;;;5052759;28;20235;-53
2023/08/27 06:22:55;;;;;;;6.70;4.70;;;16.10;99.90;;;;;;5054499;28;20167;-52
2023/08/27 06:25:22;;;;;;;7.25;4.72;;;16.10;99.90;;;;;;5055074;28;20175;-52
2023/08/27 06:27:48;;;;;;;7.43;4.63;;;16.00;99.90;;;;;;5055168;28;20180;-52
2023/08/27 06:30:14;;;;;;;8.18;4.57;;;16.10;99.90;;;;;;5054887;28;20210;-52
2023/08/27 06:32:39;;;;;;;6.45;4.50;;;16.10;99.90;;;;;;5054778;28;20175;-51
2023/08/27 06:35:05;;;;;;;5.60;4.20;;;16.20;99.90;;;;;;5053928;28;20263;-52
2023/08/27 06:37:31;;;;;;;7.57;4.07;;;16.30;99.90;;;;;;5054964;28;20207;-53
2023/08/27 06:39:56;;;;;;;6.15;4.63;;;16.20;99.90;;;;;;5054963;28;20176;-51
2023/08/27 06:42:22;;;;;;;6.65;4.25;;;16.30;99.90;;;;;;5054599;28;20175;-53
2023/08/27 06:44:48;;;;;;;4.90;4.07;;;16.30;99.90;;;;;;5054955;28;20171;-48
2023/08/27 06:47:13;;;;;;;5.97;4.15;;;16.30;99.90;;;;;;5054670;28;20182;-50
2023/08/27 06:49:39;;;;;;;5.22;3.63;;;16.30;99.90;;;;;;5053581;28;20226;-49
2023/08/27 06:52:05;;;;;;;4.95;3.60;;;16.30;99.90;;;;;;5054631;28;20243;-52
2023/08/27 06:54:31;;;;;;;5.25;3.63;;;16.20;99.90;;;;;;5054693;28;20683;-51
2023/08/27 06:56:56;;;;;;;6.30;4.13;;;16.20;99.90;;;;;;5054552;28;20186;-48
2023/08/27 06:59:22;;;;;;;5.50;4.05;;;16.30;99.90;;;;;;5054488;28;20175;-51
2023/08/27 07:01:47;;;;;;;7.28;4.18;;;16.40;99.90;;;;;;5054270;28;20175;-51
2023/08/27 07:04:13;;;;;;;5.07;3.60;;;16.20;99.90;;;;;;5054576;28;20237;-51
2023/08/27 07:06:39;;;;;;;7.38;3.92;;;16.30;99.90;;;;;;5054578;28;20175;-51
2023/08/27 07:09:05;;;;;;;5.10;3.90;;;16.30;99.90;;;;;;5054484;28;20177;-50
2023/08/27 07:11:33;;;;;;;4.50;3.42;;;16.40;99.90;;;;;;5054343;28;20325;-53
2023/08/27 07:13:59;;;;;;;4.90;3.85;;;16.30;99.90;;;;;;5054200;28;20203;-52
2023/08/27 07:16:26;;;;;;;7.55;3.92;;;16.30;99.90;;;;;;5054077;28;20259;-50
2023/08/27 07:18:52;;;;;;;7.22;4.55;;;16.20;99.90;;;;;;5054103;28;20262;-52
2023/08/27 07:21:18;;;;;;;6.60;4.10;;;16.30;99.90;;;;;;5054290;28;20544;-50
2023/08/27 07:23:44;;;;;;;4.43;3.53;;;16.50;99.90;;;;;;5053208;28;20175;-51
2023/08/27 07:26:09;;;;;;;8.95;4.82;;;16.60;99.90;;;;;;5054170;28;20167;-52
2023/08/27 07:28:35;;;;;;;6.22;3.60;;;16.80;99.90;;;;;;5053966;28;20183;-48
2023/08/27 07:31:01;;;;;;;5.30;3.22;;;16.80;99.90;;;;;;5053873;28;20210;-52
2023/08/27 07:33:27;;;;;;;4.28;2.75;;;16.90;99.90;;;;;;5054035;28;20667;-51
2023/08/27 07:35:53;;;;;;;8.23;3.03;;;16.90;99.90;;;;;;5053761;28;20175;-52
2023/08/27 07:38:18;;;;;;;6.57;3.10;;;17.10;99.90;;;;;;5053745;28;20229;-50
2023/08/27 07:40:45;;;;;;;5.43;2.55;;;17.00;99.90;;;;;;5053788;28;20175;-51
2023/08/27 07:43:10;;;;;;;4.88;2.78;;;17.00;99.90;;;;;;5052547;28;20175;-48
2023/08/27 07:45:36;;;;;;;6.07;2.58;;;16.90;99.90;;;;;;5053558;28;20171;-53
2023/08/27 07:48:02;;;;;;;6.18;2.65;;;17.00;99.90;;;;;;5053258;28;20183;-49
2023/08/27 07:50:27;;;;;;;3.80;2.33;;;17.10;99.90;;;;;;5053646;28;20215;-47
2023/08/27 07:52:53;;;;;;;5.65;2.83;;;17.20;99.90;;;;;;5053812;28;20175;-48
2023/08/27 07:55:19;;;;;;;7.00;2.67;;;17.20;99.90;;;;;;5053653;28;20175;-51
2023/08/27 07:57:45;;;;;;;6.35;2.45;;;17.40;99.90;;;;;;5053459;28;20175;-51
2023/08/27 08:00:15;;;;;;;3.63;2.20;;;17.40;99.90;;;;;;5053407;28;20290;-52
2023/08/27 08:02:41;;;;;;;6.43;2.42;;;17.40;99.90;;;;;;5053730;28;20652;-51
2023/08/27 08:05:07;;;;;;;4.45;2.13;;;17.50;99.90;;;;;;5053821;28;20183;-50
2023/08/27 08:07:34;;;;;;;3.75;2.17;;;17.70;99.90;;;;;;5053486;28;20198;-51
2023/08/27 08:10:00;;;;;;;5.72;2.50;;;17.70;99.90;;;;;;5053259;28;20183;-51
2023/08/27 08:12:26;;;;;;;4.68;2.50;;;17.80;99.90;;;;;;5053307;28;20175;-51
2023/08/27 08:14:52;;;;;;;5.45;2.50;;;17.90;99.90;;;;;;5053231;28;20167;-50
2023/08/27 08:17:17;;;;;;;4.05;2.35;;;18.00;99.90;;;;;;5053134;28;20571;-53
2023/08/27 08:19:43;;;;;;;5.35;2.28;;;18.10;99.90;;;;;;5052980;28;20221;-51
2023/08/27 08:22:09;;;;;;;4.20;2.13;;;18.40;99.90;;;;;;5053205;28;20632;-51
2023/08/27 08:24:35;;;;;;;3.28;2.30;;;18.70;99.90;;;;;;5053200;28;20199;-48
2023/08/27 08:27:02;;;;;;;3.78;1.88;;;18.70;99.90;;;;;;5053181;28;20179;-49
2023/08/27 08:29:31;;;;;;;3.03;1.85;;;18.90;99.90;;;;;;5053121;28;20171;-50
2023/08/27 08:31:58;;;;;;;5.32;1.90;;;18.90;99.90;;;;;;5053211;28;20223;-52
2023/08/27 08:34:23;;;;;;;4.47;1.70;;;18.90;99.90;;;;;;5054288;28;20309;-49
2023/08/27 08:36:49;;;;;;;4.22;1.70;;;18.90;99.90;;;;;;5059653;28;20597;-52
2023/08/27 08:39:15;;;;;;;4.60;1.60;;;19.00;99.90;;;;;;5059755;28;20254;-52
2023/08/27 08:41:45;;;;;;;3.78;1.75;;;19.00;99.90;;;;;;5059596;28;20214;-50
2023/08/27 08:44:35;;;;;;;3.28;1.38;;;19.00;99.90;;;;;;5059791;28;20209;-49
2023/08/27 08:47:01;;;;;;;2.50;1.17;;;18.90;99.90;;;;;;5059761;28;20166;-51
2023/08/27 08:49:30;;;;;;;2.58;1.00;;;19.00;99.90;;;;;;5059641;28;20532;-53
2023/08/27 08:52:01;;;;;;;3.38;1.55;;;19.00;99.90;;;;;;5059528;28;20198;-52
2023/08/27 08:54:28;;;;;;;3.25;1.25;;;19.00;99.90;;;;;;5059454;28;20652;-50
2023/08/27 08:57:00;;;;;;;4.40;1.25;;;18.90;99.90;;;;;;5059581;28;20175;-51
2023/08/27 08:59:28;;;;;;;2.65;1.50;;;18.90;99.90;;;;;;5059646;28;20199;-52
2023/08/27 09:01:54;;;;;;;4.03;1.40;;;19.00;99.90;;;;;;5059412;28;20183;-49
2023/08/27 09:04:21;;;;;;;5.13;1.60;;;19.10;99.90;;;;;;5059471;28;20182;-49
2023/08/27 09:06:47;;;;;;;3.65;1.42;;;19.00;99.90;;;;;;5059441;28;20181;-51
2023/08/27 09:09:14;;;;;;;3.63;1.23;;;18.70;99.90;;;;;;5059364;28;20273;-50
2023/08/27 09:11:41;;;;;;;4.63;1.40;;;18.80;99.90;;;;;;5059389;28;20238;-52
2023/08/27 09:14:09;;;;;;;3.65;1.60;;;19.10;99.90;;;;;;5059799;28;20228;-50
2023/08/27 09:16:35;;;;;;;3.40;1.20;;;19.30;99.90;;;;;;5059394;28;20182;-52
2023/08/27 09:19:01;;;;;;;3.40;1.10;;;19.50;99.90;;;;;;5059165;28;20187;-52
2023/08/27 09:21:27;;;;;;;4.82;1.30;;;19.50;99.90;;;;;;5059410;28;20655;-52
2023/08/27 09:23:54;;;;;;;2.47;1.13;;;19.60;99.90;;;;;;5059447;28;20187;-48
2023/08/27 09:26:20;;;;;;;3.30;1.40;;;19.60;99.90;;;;;;5059422;28;20195;-52
2023/08/27 09:28:46;;;;;;;3.03;1.27;;;19.50;99.90;;;;;;5059657;28;20174;-48
2023/08/27 09:31:32;;;;;;;2.45;1.20;;;19.30;99.90;;;;;;5059252;28;20764;-51
2023/08/27 09:33:58;;;;;;;1.83;0.88;;;19.00;99.90;;;;;;5059047;28;20639;-49
2023/08/27 09:36:25;;;;;;;1.52;1.15;;;19.00;99.90;;;;;;5059367;28;20271;-48
2023/08/27 09:38:51;;;;;;;4.00;1.20;;;18.80;99.90;;;;;;5059313;28;20175;-51
2023/08/27 09:41:17;;;;;;;3.45;1.20;;;18.60;99.90;;;;;;5059252;28;20270;-49
2023/08/27 09:43:53;;;;;;;2.78;1.30;;;18.50;99.90;;;;;;5058031;28;20171;-52
2023/08/27 09:46:20;;;;;;;3.17;1.30;;;18.60;99.90;;;;;;5056857;28;20233;-51
2023/08/27 09:49:15;;;;;;;2.10;1.10;;;19.00;99.90;;;;;;5056162;28;20182;-50
2023/08/27 09:51:41;;;;;;;2.13;1.00;;;19.50;99.90;;;;;;5046104;28;20223;-52
2023/08/27 09:54:29;;;;;;;2.50;1.25;;;19.90;99.90;;;;;;5055901;28;20275;-52
2023/08/27 09:57:01;;;;;;;2.17;0.95;;;20.20;99.90;;;;;;5055709;28;20221;-52
2023/08/27 09:59:27;;;;;;;1.92;1.10;;;20.40;99.90;;;;;;5055953;28;20175;-51
2023/08/27 10:01:53;;;;;;;3.17;1.33;;;20.40;99.90;;;;;;5055792;28;20641;-52
2023/08/27 10:04:20;;;;;;;2.50;1.08;;;20.30;99.90;;;;;;5055575;28;20179;-53
2023/08/27 10:06:46;;;;;;;1.55;0.93;;;20.10;99.90;;;;;;5055396;28;20206;-49
2023/08/27 10:09:12;;;;;;;2.83;1.58;;;20.00;99.90;;;;;;5055377;28;20207;-49
2023/08/27 10:11:40;;;;;;;2.97;1.40;;;20.00;99.90;;;;;;5055323;28;20572;-51
2023/08/27 10:14:06;;;;;;;3.45;1.40;;;20.10;99.90;;;;;;5055592;28;20172;-51
2023/08/27 10:16:36;;;;;;;2.92;1.10;;;20.40;99.90;;;;;;5055512;28;20220;-55
2023/08/27 10:19:03;;;;;;;2.70;1.20;;;20.40;99.90;;;;;;5055007;28;20655;-50
2023/08/27 10:21:30;;;;;;;2.78;1.15;;;20.50;99.90;;;;;;5055299;28;20182;-49
2023/08/27 10:23:56;;;;;;;2.17;0.80;;;20.80;99.90;;;;;;5055029;28;20175;-52
2023/08/27 10:26:23;;;;;;;2.42;0.80;;;20.80;99.90;;;;;;5055399;28;20328;-47
2023/08/27 10:28:51;;;;;;;2.75;1.00;;;20.70;99.90;;;;;;5053259;28;20183;-52
2023/08/27 10:31:16;;;;;;;2.40;0.98;;;20.40;99.90;;;;;;5053580;28;20243;-52
2023/08/27 10:33:42;;;;;;;4.10;1.10;;;20.20;99.90;;;;;;5055097;28;20621;-53
2023/08/27 10:36:34;;;;;;;2.83;1.10;;;20.20;99.90;;;;;;5054972;28;20225;-50
2023/08/27 10:39:03;;;;;;;2.05;1.25;;;20.50;99.90;;;;;;5055166;28;20172;-51
2023/08/27 10:41:29;;;;;;;2.22;1.27;;;20.60;99.90;;;;;;5055156;28;20258;-49
2023/08/27 10:43:55;;;;;;;1.63;1.02;;;20.30;99.90;;;;;;5054898;28;20210;-52
2023/08/27 10:46:24;;;;;;;1.20;0.90;;;20.60;99.90;;;;;;5054789;28;20203;-49
2023/08/27 10:48:54;;;;;;;1.73;0.80;;;20.90;99.90;;;;;;5054415;28;20773;-51
2023/08/27 10:51:26;;;;;;;1.13;0.70;;;21.20;99.90;;;;;;5035994;28;20679;-51
2023/08/27 10:53:52;;;;;;;2.85;0.80;;;21.30;99.90;;;;;;5062069;28;20184;-51
2023/08/27 10:56:32;;;;;;;1.73;0.82;;;21.40;99.90;;;;;;5074442;28;20172;-49
2023/08/27 10:58:59;;;;;;;2.67;0.93;;;21.50;99.90;;;;;;5074189;28;20171;-50
2023/08/27 11:01:25;;;;;;;2.45;0.75;;;21.10;99.90;;;;;;5074350;28;20174;-51
2023/08/27 11:04:03;;;;;;;1.58;0.77;;;20.80;99.90;;;;;;5074449;28;20651;-52
2023/08/27 11:06:40;;;;;;;2.80;1.02;;;20.50;99.90;;;;;;5074700;28;20533;-53
2023/08/27 11:09:16;;;;;;;6.35;1.15;;;20.00;99.90;;;;;;5074467;28;20654;-52
2023/08/27 11:11:54;;;;;;;1.08;0.90;;;19.50;99.90;;;;;;5074275;28;20210;-52
2023/08/27 11:14:28;;;;;;;1.75;0.80;;;18.30;99.90;;;;;;5073348;28;20708;-51
2023/08/27 11:17:00;;;;;;;1.95;1.08;;;17.80;99.90;;;;;;5074264;28;20186;-50
2023/08/27 11:19:32;;;;;;;4.75;1.30;;;17.40;99.90;;;;;;5072880;28;20250;-52
2023/08/27 11:22:14;;;;;;;2.40;1.50;;;17.20;99.90;;;;;;5074407;28;20175;-48
2023/08/27 11:24:55;;;;;;;2.38;1.10;;;17.40;99.90;;;;;;5074138;28;20566;-53
2023/08/27 11:27:28;;;;;;;7.25;2.05;;;17.30;99.90;;;;;;5074178;28;20170;-50
2023/08/27 11:29:57;;;;;;;2.05;1.45;;;17.30;99.90;;;;;;5074199;28;20217;-50
2023/08/27 11:32:23;;;;;;;3.17;1.20;;;17.10;99.90;;;;;;5073176;28;20351;-52
2023/08/27 11:34:51;;;;;;;1.75;1.00;;;16.80;99.90;;;;;;5073743;28;20218;-54
2023/08/27 11:37:17;;;;;;;1.52;1.20;;;16.70;99.90;;;;;;5074071;28;20232;-50
2023/08/27 11:39:44;;;;;;;2.03;1.00;;;16.50;99.90;;;;;;5074043;28;20174;-53
2023/08/27 11:42:11;;;;;;;2.15;1.30;;;16.50;99.90;;;;;;5073789;28;20186;-50
2023/08/27 11:44:54;;;;;;;4.20;1.00;;;16.60;99.90;;;;;;5073805;28;20244;-49
2023/08/27 11:47:20;;;;;;;1.00;0.90;;;16.60;99.90;;;;;;5074047;28;20171;-51
2023/08/27 11:49:46;;;;;;;2.08;1.20;;;16.60;99.90;;;;;;5072351;28;20182;-51
2023/08/27 11:52:16;;;;;;;1.40;1.20;;;16.80;99.90;;;;;;5071709;28;20454;-50
2023/08/27 11:54:46;;;;;;;2.22;1.10;;;17.00;99.90;;;;;;5073659;28;20175;-51
2023/08/27 11:57:14;;;;;;;2.25;1.20;;;17.20;99.90;;;;;;5073232;28;20250;-51
2023/08/27 11:59:40;;;;;;;1.85;1.00;;;17.30;99.90;;;;;;5072765;28;20174;-50
2023/08/27 12:02:07;;;;;;;1.55;0.90;;;17.40;99.90;;;;;;5073456;28;20187;-52
2023/08/27 12:04:33;;;;;;;0.70;0.70;;;17.50;99.90;;;;;;5073652;28;20202;-48
2023/08/27 12:07:05;;;;;;;2.95;1.15;;;17.50;99.90;;;;;;5073589;28;20197;-48
2023/08/27 12:09:35;;;;;;;1.33;0.88;;;17.80;99.90;;;;;;5073063;28;20205;-51
2023/08/27 12:12:07;;;;;;;1.48;0.90;;;18.10;99.90;;;;;;5073333;28;20675;-50
2023/08/27 12:14:34;;;;;;;1.73;0.90;;;18.30;99.90;;;;;;5073303;28;20217;-50
2023/08/27 12:17:10;;;;;;;0.98;0.90;;;18.60;99.90;;;;;;5073489;28;20186;-52
2023/08/27 12:19:38;;;;;;;1.25;1.00;;;18.30;99.90;;;;;;5073581;28;20316;-52
2023/08/27 12:22:04;;;;;;;1.17;1.08;;;18.20;99.90;;;;;;5073346;28;20213;-52
2023/08/27 12:24:34;;;;;;;1.40;1.30;;;18.30;99.90;;;;;;5073269;28;20201;-52
2023/08/27 12:27:06;;;;;;;1.65;1.52;;;18.40;99.90;;;;;;5073216;28;20531;-53
2023/08/27 12:29:40;;;;;;;1.73;1.60;;;18.70;99.90;;;;;;5073118;28;20205;-49
2023/08/27 12:32:18;;;;;;;1.83;1.73;;;18.90;99.90;;;;;;5073156;28;20296;-50
2023/08/27 12:34:46;;;;;;;1.50;1.40;;;19.10;99.90;;;;;;5073241;28;20166;-52
2023/08/27 12:37:12;;;;;;;3.47;1.85;;;19.00;99.90;;;;;;5073187;28;20177;-53
2023/08/27 12:39:39;;;;;;;2.00;1.80;;;19.00;99.90;;;;;;5073018;28;20573;-50
2023/08/27 12:42:06;;;;;;;1.73;1.63;;;19.10;99.90;;;;;;5073262;28;20640;-53
2023/08/27 12:44:33;;;;;;;2.13;1.70;;;19.40;99.90;;;;;;5073439;28;20174;-49
2023/08/27 12:46:59;;;;;;;1.85;1.70;;;19.50;99.90;;;;;;5073084;28;20183;-51
2023/08/27 12:49:24;;;;;;;2.17;1.38;;;19.60;99.90;;;;;;5073020;28;20231;-53
2023/08/27 12:51:50;;;;;;;1.80;1.70;;;19.40;99.90;;;;;;5072975;28;20697;-49